Time;durP1;ratioP1;P1;durP2;ratioP2;P2;SDS_P1;SDS_P2;PMS_P1;PMS_P2;Temp;Humidity;BMP_temperature;BMP_pressure;BME280_temperature;BME280_humidity;BME280_pressure;Samples;Min_cycle;Max_cycle;Signal;HPM_P1;HPM_P2
2021/09/10 00:06:49;;;;;;;11.60;9.70;;;;;;;12.41;64.53;99546.32;464615;1194;142158;-59
2021/09/10 00:16:52;;;;;;;10.90;9.50;;;;;;;12.17;64.46;99546.48;468823;1194;141567;-58
2021/09/10 00:26:55;;;;;;;11.60;8.40;;;;;;;11.93;65.16;99546.17;468184;1194;140426;-59
2021/09/10 00:36:59;;;;;;;12.10;8.70;;;;;;;11.91;65.34;99551.62;472809;1194;142217;-60
2021/09/10 00:47:03;;;;;;;11.10;9.90;;;;;;;11.90;65.51;99554.11;470418;1194;143272;-59
2021/09/10 00:57:06;;;;;;;10.70;8.90;;;;;;;11.88;65.55;99554.08;472847;1194;142741;-60
2021/09/10 01:07:11;;;;;;;14.50;12.10;;;;;;;11.69;65.67;99549.04;463945;1194;142812;-58
2021/09/10 01:17:14;;;;;;;12.40;10.00;;;;;;;11.56;66.12;99549.06;472143;1190;142341;-57
2021/09/10 01:27:17;;;;;;;12.50;9.60;;;;;;;11.31;66.34;99548.30;472726;1194;141717;-58
2021/09/10 01:37:21;;;;;;;13.50;10.90;;;;;;;11.26;67.06;99547.95;462187;1189;142149;-58
2021/09/10 01:47:24;;;;;;;13.00;10.80;;;;;;;11.31;67.00;99548.32;472238;1184;142887;-59
2021/09/10 01:57:28;;;;;;;17.30;10.70;;;;;;;11.28;67.03;99549.73;472743;1194;143179;-58
2021/09/10 02:07:31;;;;;;;16.40;11.20;;;;;;;11.21;66.93;99550.94;472733;1194;202554;-60
2021/09/10 02:17:35;;;;;;;11.60;10.30;;;;;;;11.03;67.21;99550.20;466326;1194;144805;-58
2021/09/10 02:27:39;;;;;;;13.10;10.40;;;;;;;10.83;67.52;99547.08;459103;1194;141253;-60
2021/09/10 02:37:42;;;;;;;13.90;10.00;;;;;;;10.76;67.85;99548.27;462128;1194;142051;-59
2021/09/10 02:47:46;;;;;;;14.10;10.30;;;;;;;10.69;67.69;99542.05;467208;1194;142458;-58
2021/09/10 02:57:49;;;;;;;14.20;9.60;;;;;;;10.65;67.71;99537.41;472892;1194;141533;-59
2021/09/10 03:07:57;;;;;;;18.60;14.90;;;;;;;10.65;68.22;99533.39;472097;1194;143006;-59
2021/09/10 03:18:00;;;;;;;14.60;11.30;;;;;;;10.46;67.82;99540.89;472865;1194;140912;-60
2021/09/10 03:28:05;;;;;;;17.30;12.30;;;;;;;10.31;68.36;99535.36;469214;1194;144140;-58
2021/09/10 03:38:09;;;;;;;12.50;10.40;;;;;;;10.23;68.59;99530.77;455626;1194;141850;-60
2021/09/10 03:48:12;;;;;;;13.70;10.60;;;;;;;10.33;68.76;99530.14;468650;1194;142256;-64
2021/09/10 03:58:16;;;;;;;16.20;10.70;;;;;;;10.40;68.64;99526.42;472959;1194;142055;-59
2021/09/10 04:08:20;;;;;;;16.10;11.00;;;;;;;10.35;68.47;99524.62;472120;1194;142965;-57
2021/09/10 04:18:23;;;;;;;13.40;9.70;;;;;;;10.24;69.03;99528.64;472901;1194;142040;-53
2021/09/10 04:28:26;;;;;;;15.00;10.70;;;;;;;10.26;68.86;99530.41;472849;1194;141340;-52
2021/09/10 04:38:31;;;;;;;14.50;10.50;;;;;;;10.39;68.69;99530.64;471934;1194;145296;-59
2021/09/10 04:48:34;;;;;;;14.40;8.60;;;;;;;10.82;68.59;99535.75;473024;1190;142019;-57
2021/09/10 04:58:37;;;;;;;12.00;8.90;;;;;;;11.26;68.20;99538.52;472824;1193;141065;-58
2021/09/10 05:08:40;;;;;;;18.50;10.30;;;;;;;11.82;67.58;99543.98;472023;1194;143466;-59
2021/09/10 05:18:43;;;;;;;12.00;8.10;;;;;;;13.59;65.87;99541.29;472847;1194;142276;-58
2021/09/10 05:28:48;;;;;;;12.90;7.70;;;;;;;17.92;62.44;99534.18;471793;1194;141947;-58
2021/09/10 05:38:51;;;;;;;11.50;6.50;;;;;;;26.26;51.47;99527.75;468945;1194;142340;-59
2021/09/10 05:48:54;;;;;;;9.60;7.30;;;;;;;32.01;41.93;99529.33;472671;1194;140325;-58
2021/09/10 05:58:57;;;;;;;14.30;7.10;;;;;;;35.74;35.20;99542.05;471976;1195;140189;-59
2021/09/10 06:09:00;;;;;;;9.50;6.80;;;;;;;38.67;30.16;99547.08;472925;1194;141083;-60
2021/09/10 06:19:03;;;;;;;10.90;7.30;;;;;;;41.08;26.33;99550.20;472969;1194;141123;-60
2021/09/10 06:29:06;;;;;;;;;;;;;;;43.43;23.44;99552.83;472109;1194;141556;-60
2021/09/10 06:39:09;;;;;;;9.30;5.00;;;;;;;45.21;20.77;99546.96;473047;1194;128163;-60
2021/09/10 06:49:12;;;;;;;11.20;4.80;;;;;;;47.39;18.79;99553.33;467577;1194;141390;-60
2021/09/10 06:59:18;;;;;;;10.00;5.10;;;;;;;49.65;16.68;99558.12;471773;1195;145004;-60
2021/09/10 07:09:21;;;;;;;9.20;3.80;;;;;;;51.09;14.88;99565.12;472749;1194;141668;-61
2021/09/10 07:19:25;;;;;;;7.00;4.10;;;;;;;51.70;13.44;99571.73;473044;1192;143221;-63
2021/09/10 07:29:29;;;;;;;8.30;4.70;;;;;;;51.62;12.91;99572.66;471742;1195;141004;-64
2021/09/10 07:39:33;;;;;;;5.90;5.40;;;;;;;52.18;12.34;99575.31;472664;1194;140950;-62
2021/09/10 07:49:36;;;;;;;10.20;6.50;;;;;;;53.74;11.51;99577.65;472879;1194;140448;-62
2021/09/10 07:59:39;;;;;;;9.50;8.70;;;;;;;54.70;10.76;99580.88;472076;1191;140651;-62
2021/09/10 08:09:42;;;;;;;21.00;9.60;;;;;;;54.01;10.41;99581.11;472906;1194;143307;-62
2021/09/10 08:19:48;;;;;;;11.30;10.60;;;;;;;54.56;10.18;99585.57;472266;1190;141118;-62
2021/09/10 08:29:52;;;;;;;10.90;10.30;;;;;;;54.88;9.92;99580.20;472867;1194;141635;-63
2021/09/10 08:39:55;;;;;;;6.20;4.70;;;;;;;54.65;9.68;99580.92;472895;1194;140306;-65
2021/09/10 08:49:59;;;;;;;5.50;2.80;;;;;;;45.79;12.09;99570.59;472041;1193;140230;-66
2021/09/10 09:00:08;;;;;;;6.00;3.00;;;;;;;38.77;15.71;99572.21;472420;1194;141166;-59
2021/09/10 09:10:12;;;;;;;4.30;2.80;;;;;;;35.25;18.56;99572.08;472397;1195;140302;-63
2021/09/10 09:20:21;;;;;;;8.20;4.30;;;;;;;33.05;20.56;99571.63;471662;1194;141415;-63
2021/09/10 09:30:38;;;;;;;6.00;2.50;;;;;;;31.17;22.51;99569.48;472469;1195;140836;-63
2021/09/10 09:40:43;;;;;;;8.60;3.00;;;;;;;30.14;23.97;99565.70;472472;1195;141401;-61
2021/09/10 09:50:48;;;;;;;8.50;2.80;;;;;;;29.62;24.91;99556.44;472368;1195;140753;-63
2021/09/10 10:00:51;;;;;;;5.00;2.30;;;;;;;28.70;25.51;99560.36;472923;1191;142200;-59
2021/09/10 10:11:04;;;;;;;6.30;2.40;;;;;;;28.02;26.40;99560.20;454703;1194;20001811;-62
2021/09/10 10:21:09;;;;;;;8.90;2.80;;;;;;;27.51;27.19;99560.75;472305;1195;141655;-59
2021/09/10 10:31:14;;;;;;;8.70;2.50;;;;;;;27.20;27.88;99556.48;464341;1183;141767;-61
2021/09/10 10:41:20;;;;;;;10.10;2.00;;;;;;;26.79;28.12;99554.34;471854;1194;141732;-58
2021/09/10 10:51:49;;;;;;;11.90;2.40;;;;;;;26.49;28.88;99556.70;472346;1194;140893;-60
2021/09/10 11:02:40;;;;;;;5.70;2.60;;;;;;;26.36;28.85;99555.73;467653;1193;141632;-59
2021/09/10 11:12:47;;;;;;;7.30;3.30;;;;;;;26.21;28.89;99553.92;472622;1193;181353;-60
2021/09/10 11:22:50;;;;;;;6.50;2.90;;;;;;;26.13;29.24;99551.98;471887;1193;141290;-60
2021/09/10 11:33:01;;;;;;;2.60;2.10;;;;;;;26.12;29.50;99542.58;470391;1193;141617;-59
2021/09/10 11:43:07;;;;;;;5.90;2.10;;;;;;;25.95;28.75;99537.85;464447;1194;142217;-54
2021/09/10 11:53:14;;;;;;;8.70;2.90;;;;;;;25.83;28.77;99531.96;471532;1194;141566;-60
2021/09/10 12:03:18;;;;;;;3.60;2.00;;;;;;;25.83;28.94;99526.30;472401;1194;142371;-57
2021/09/10 12:13:32;;;;;;;2.90;2.40;;;;;;;25.71;28.10;99525.33;458947;1193;10001369;-50
2021/09/10 12:23:35;;;;;;;4.00;1.90;;;;;;;25.53;27.70;99526.80;464351;1194;141871;-47
2021/09/10 12:33:42;;;;;;;4.20;1.80;;;;;;;25.43;27.61;99521.44;468971;1194;140528;-54
2021/09/10 12:43:47;;;;;;;9.00;2.20;;;;;;;25.33;27.44;99517.44;471869;1191;140460;-58
2021/09/10 12:53:51;;;;;;;7.10;2.30;;;;;;;25.30;27.58;99508.63;472698;1190;187644;-60
2021/09/10 13:03:55;;;;;;;2.80;1.50;;;;;;;25.22;26.68;99501.86;466574;1194;140899;-58
2021/09/10 13:14:00;;;;;;;6.20;1.80;;;;;;;25.15;26.36;99495.89;471909;1194;144413;-58
2021/09/10 13:24:03;;;;;;;4.10;1.50;;;;;;;25.13;26.29;99492.55;472867;1190;141142;-59
2021/09/10 13:34:06;;;;;;;6.30;2.10;;;;;;;25.11;26.38;99491.21;469249;1194;141106;-57
2021/09/10 13:44:10;;;;;;;4.60;2.10;;;;;;;25.07;26.10;99487.72;457961;1194;10001289;-56
2021/09/10 13:54:13;;;;;;;6.40;1.40;;;;;;;24.99;25.99;99491.46;457501;1194;141548;-58
2021/09/10 14:04:16;;;;;;;4.30;1.60;;;;;;;24.97;26.29;99493.15;470270;1194;145320;-60
2021/09/10 14:14:20;;;;;;;3.30;1.70;;;;;;;24.93;26.20;99489.32;471919;1194;140781;-64
2021/09/10 14:24:24;;;;;;;2.50;1.70;;;;;;;24.89;26.20;99490.40;466358;1194;147201;-60
2021/09/10 14:34:30;;;;;;;3.30;1.90;;;;;;;24.81;26.25;99486.37;470406;1194;141409;-58
2021/09/10 14:44:33;;;;;;;5.40;2.40;;;;;;;24.72;26.19;99479.98;471532;1194;140918;-58
2021/09/10 14:54:38;;;;;;;3.80;1.70;;;;;;;24.62;26.53;99478.14;472667;1194;140760;-58
2021/09/10 15:04:41;;;;;;;3.90;2.00;;;;;;;24.55;27.05;99472.13;472565;1194;140948;-58
2021/09/10 15:14:44;;;;;;;5.90;2.00;;;;;;;24.47;27.24;99472.92;450972;1194;10002481;-57
2021/09/10 15:24:48;;;;;;;3.10;1.90;;;;;;;24.34;27.29;99470.79;471381;1194;142599;-58
2021/09/10 15:34:51;;;;;;;3.10;1.90;;;;;;;24.63;27.75;99467.70;471760;1194;142214;-58
2021/09/10 15:44:55;;;;;;;4.50;1.80;;;;;;;24.55;28.00;99458.24;472216;1194;141449;-58
2021/09/10 15:55:02;;;;;;;3.50;2.30;;;;;;;24.11;28.62;99455.85;472838;1194;179327;-58
2021/09/10 16:05:06;;;;;;;5.70;1.90;;;;;;;23.70;29.40;99461.20;470045;1194;141146;-57
2021/09/10 16:15:11;;;;;;;4.90;3.30;;;;;;;23.31;29.92;99459.54;464741;1194;141035;-58
2021/09/10 16:25:15;;;;;;;9.30;2.80;;;;;;;22.94;30.85;99463.21;465063;1194;140519;-59
2021/09/10 16:35:21;;;;;;;13.20;2.80;;;;;;;22.49;32.19;99462.36;471958;1194;141378;-60
2021/09/10 16:45:24;;;;;;;8.00;3.10;;;;;;;21.99;33.83;99463.26;462771;1194;142612;-58
2021/09/10 16:55:28;;;;;;;9.20;4.70;;;;;;;21.45;35.33;99468.85;470456;1194;140753;-59
2021/09/10 17:05:31;;;;;;;17.90;4.70;;;;;;;20.88;37.21;99471.94;462852;1194;141960;-58
2021/09/10 17:15:35;;;;;;;17.70;4.80;;;;;;;20.20;40.20;99479.70;467941;1194;142067;-61
2021/09/10 17:25:39;;;;;;;6.90;4.90;;;;;;;19.59;42.11;99490.98;469234;1194;141188;-59
2021/09/10 17:35:42;;;;;;;10.60;7.00;;;;;;;19.02;44.82;99499.39;467007;1194;141131;-56
2021/09/10 17:45:45;;;;;;;29.00;12.70;;;;;;;18.45;46.49;99508.77;472908;1193;141675;-56
2021/09/10 17:55:48;;;;;;;16.90;8.50;;;;;;;17.93;47.87;99517.06;464237;1194;146460;-55
2021/09/10 18:05:54;;;;;;;17.70;9.00;;;;;;;17.44;49.32;99526.52;467992;1194;141955;-58
2021/09/10 18:15:58;;;;;;;11.20;5.60;;;;;;;16.96;50.52;99535.63;472774;1194;141427;-58
2021/09/10 18:26:01;;;;;;;17.30;6.80;;;;;;;16.58;51.52;99540.76;472051;1191;141721;-59
2021/09/10 18:36:05;;;;;;;12.40;6.00;;;;;;;16.27;52.40;99545.29;472742;1194;140737;-59
2021/09/10 18:46:09;;;;;;;13.80;6.40;;;;;;;16.02;53.37;99548.33;472612;1194;140684;-59
2021/09/10 18:56:13;;;;;;;18.10;7.90;;;;;;;15.76;54.29;99554.59;471946;1194;142751;-59
2021/09/10 19:06:16;;;;;;;16.00;8.10;;;;;;;15.50;55.08;99556.45;472785;1194;143218;-59
2021/09/10 19:16:19;;;;;;;23.60;10.90;;;;;;;15.27;55.70;99553.09;472810;1194;141296;-60
2021/09/10 19:26:22;;;;;;;21.20;9.30;;;;;;;15.09;56.40;99552.70;472034;1194;142548;-59
2021/09/10 19:36:26;;;;;;;16.50;7.30;;;;;;;14.96;56.93;99553.40;472676;1194;146174;-59
2021/09/10 19:46:29;;;;;;;24.40;10.00;;;;;;;14.86;57.28;99558.30;470309;1194;141723;-58
2021/09/10 19:56:32;;;;;;;12.20;7.80;;;;;;;14.67;57.69;99556.08;470345;1194;141926;-60
2021/09/10 20:06:36;;;;;;;18.10;8.60;;;;;;;14.47;57.45;99549.73;472271;1194;141354;-58
2021/09/10 20:16:39;;;;;;;15.30;8.90;;;;;;;14.37;57.15;99551.39;472520;1194;141742;-59
2021/09/10 20:26:43;;;;;;;13.50;9.00;;;;;;;14.29;57.46;99555.25;471673;1194;141278;-59
2021/09/10 20:36:46;;;;;;;18.70;9.10;;;;;;;14.12;58.29;99556.25;472530;1194;142423;-59
2021/09/10 20:46:49;;;;;;;17.50;8.80;;;;;;;13.92;59.19;99554.77;471831;1191;152331;-59
2021/09/10 20:56:52;;;;;;;21.10;10.20;;;;;;;13.73;59.74;99562.59;472529;1194;141675;-59
2021/09/10 21:06:56;;;;;;;26.60;10.30;;;;;;;13.55;60.09;99571.55;472183;1195;142633;-59
2021/09/10 21:16:59;;;;;;;15.60;8.60;;;;;;;13.36;60.51;99570.85;471713;1194;142089;-59
2021/09/10 21:27:03;;;;;;;18.70;9.70;;;;;;;13.15;60.93;99563.59;472081;1195;141948;-58
2021/09/10 21:37:06;;;;;;;16.80;9.60;;;;;;;12.97;61.29;99560.59;472302;1195;141189;-59
2021/09/10 21:47:09;;;;;;;14.10;8.60;;;;;;;12.81;61.64;99564.38;471603;1194;143626;-59
2021/09/10 21:57:13;;;;;;;13.80;8.90;;;;;;;12.66;61.82;99565.77;452013;1194;20001909;-59
2021/09/10 22:07:16;;;;;;;13.80;9.10;;;;;;;12.48;62.27;99567.58;464371;1194;141617;-58
2021/09/10 22:17:20;;;;;;;13.90;10.30;;;;;;;12.27;62.71;99569.29;460711;1183;143028;-59
2021/09/10 22:27:23;;;;;;;14.10;9.50;;;;;;;12.07;63.55;99570.83;464220;1195;142461;-58
2021/09/10 22:37:26;;;;;;;12.80;9.10;;;;;;;11.91;63.81;99571.42;468689;1194;141913;-58
2021/09/10 22:47:30;;;;;;;13.20;8.90;;;;;;;11.78;64.07;99574.75;470853;1191;141922;-59
2021/09/10 22:57:33;;;;;;;17.40;12.20;;;;;;;11.72;64.16;99566.60;458074;1195;141795;-57
2021/09/10 23:07:36;;;;;;;15.70;11.20;;;;;;;11.76;64.28;99562.41;456556;1199;142884;-57
2021/09/10 23:17:39;;;;;;;25.00;14.50;;;;;;;11.85;64.40;99569.21;456426;1195;142771;-59
2021/09/10 23:27:42;;;;;;;18.70;13.20;;;;;;;12.04;64.29;99570.20;469188;1194;146300;-58
2021/09/10 23:37:46;;;;;;;16.40;13.70;;;;;;;12.04;63.93;99571.77;471269;1194;142349;-57
2021/09/10 23:47:49;;;;;;;17.10;14.60;;;;;;;12.01;64.27;99565.15;472046;1194;141751;-58
2021/09/10 23:57:53;;;;;;;17.60;14.40;;;;;;;12.05;64.22;99562.39;472453;1191;152366;-59
